sensor_id;sensor_type;location;lat;lon;timestamp;P1;durP1;ratioP1;P2;durP2;ratioP2
55756;SDS011;41676;44.610;44.078;2023-12-22T00:03:35;120.07;;;6.57;;
55756;SDS011;41676;44.610;44.078;2023-12-22T00:08:36;61.55;;;5.15;;
55756;SDS011;41676;44.610;44.078;2023-12-22T00:13:37;91.60;;;6.18;;
55756;SDS011;41676;44.610;44.078;2023-12-22T00:18:38;107.00;;;5.32;;
55756;SDS011;41676;44.610;44.078;2023-12-22T00:23:39;38.35;;;4.68;;
55756;SDS011;41676;44.610;44.078;2023-12-22T00:28:39;24.98;;;3.67;;
55756;SDS011;41676;44.610;44.078;2023-12-22T00:33:40;11.15;;;2.70;;
55756;SDS011;41676;44.610;44.078;2023-12-22T00:38:41;3.80;;;2.08;;
55756;SDS011;41676;44.610;44.078;2023-12-22T00:43:41;3.33;;;1.90;;
55756;SDS011;41676;44.610;44.078;2023-12-22T00:48:42;4.38;;;2.08;;
55756;SDS011;41676;44.610;44.078;2023-12-22T00:53:43;4.90;;;2.25;;
55756;SDS011;41676;44.610;44.078;2023-12-22T00:58:44;3.70;;;1.90;;
55756;SDS011;41676;44.610;44.078;2023-12-22T01:03:44;4.28;;;2.33;;
55756;SDS011;41676;44.610;44.078;2023-12-22T01:08:45;3.85;;;2.45;;
55756;SDS011;41676;44.610;44.078;2023-12-22T01:13:50;4.53;;;2.17;;
55756;SDS011;41676;44.610;44.078;2023-12-22T01:18:50;6.47;;;2.30;;
55756;SDS011;41676;44.610;44.078;2023-12-22T01:23:51;4.55;;;2.58;;
55756;SDS011;41676;44.610;44.078;2023-12-22T01:28:52;4.00;;;2.40;;
55756;SDS011;41676;44.610;44.078;2023-12-22T01:34:02;3.63;;;2.17;;
55756;SDS011;41676;44.610;44.078;2023-12-22T01:39:03;4.03;;;2.20;;
55756;SDS011;41676;44.610;44.078;2023-12-22T01:44:04;3.63;;;2.22;;
55756;SDS011;41676;44.610;44.078;2023-12-22T01:49:05;4.30;;;2.53;;
55756;SDS011;41676;44.610;44.078;2023-12-22T01:54:07;4.55;;;2.47;;
55756;SDS011;41676;44.610;44.078;2023-12-22T01:59:10;6.05;;;2.85;;
55756;SDS011;41676;44.610;44.078;2023-12-22T02:04:11;5.70;;;2.90;;
55756;SDS011;41676;44.610;44.078;2023-12-22T02:09:14;5.97;;;3.25;;
55756;SDS011;41676;44.610;44.078;2023-12-22T02:14:15;5.07;;;2.97;;
55756;SDS011;41676;44.610;44.078;2023-12-22T02:24:39;18.33;;;3.58;;
55756;SDS011;41676;44.610;44.078;2023-12-22T02:29:42;7.72;;;3.63;;
55756;SDS011;41676;44.610;44.078;2023-12-22T02:34:49;19.48;;;5.72;;
55756;SDS011;41676;44.610;44.078;2023-12-22T02:39:51;11.03;;;4.73;;
55756;SDS011;41676;44.610;44.078;2023-12-22T02:44:53;20.63;;;4.07;;
55756;SDS011;41676;44.610;44.078;2023-12-22T02:49:53;16.58;;;5.47;;
55756;SDS011;41676;44.610;44.078;2023-12-22T02:54:54;11.88;;;4.28;;
55756;SDS011;41676;44.610;44.078;2023-12-22T02:59:56;4.70;;;3.03;;
55756;SDS011;41676;44.610;44.078;2023-12-22T03:04:57;5.93;;;3.17;;
55756;SDS011;41676;44.610;44.078;2023-12-22T03:09:58;5.07;;;2.88;;
55756;SDS011;41676;44.610;44.078;2023-12-22T03:14:58;4.40;;;2.72;;
55756;SDS011;41676;44.610;44.078;2023-12-22T03:19:59;3.88;;;2.70;;
55756;SDS011;41676;44.610;44.078;2023-12-22T03:25:00;4.85;;;2.65;;
55756;SDS011;41676;44.610;44.078;2023-12-22T03:30:01;5.78;;;2.53;;
55756;SDS011;41676;44.610;44.078;2023-12-22T03:35:05;4.22;;;2.58;;
55756;SDS011;41676;44.610;44.078;2023-12-22T03:40:06;5.05;;;2.85;;
55756;SDS011;41676;44.610;44.078;2023-12-22T03:45:07;3.75;;;2.50;;
55756;SDS011;41676;44.610;44.078;2023-12-22T03:50:08;4.55;;;2.78;;
55756;SDS011;41676;44.610;44.078;2023-12-22T03:55:09;6.70;;;3.25;;
55756;SDS011;41676;44.610;44.078;2023-12-22T04:00:10;4.45;;;3.10;;
55756;SDS011;41676;44.610;44.078;2023-12-22T04:05:13;6.38;;;3.25;;
55756;SDS011;41676;44.610;44.078;2023-12-22T04:10:16;15.73;;;3.47;;
55756;SDS011;41676;44.610;44.078;2023-12-22T04:15:17;5.70;;;3.73;;
55756;SDS011;41676;44.610;44.078;2023-12-22T04:20:18;8.85;;;4.47;;
55756;SDS011;41676;44.610;44.078;2023-12-22T04:25:20;8.73;;;4.82;;
55756;SDS011;41676;44.610;44.078;2023-12-22T04:30:23;7.93;;;4.40;;
55756;SDS011;41676;44.610;44.078;2023-12-22T04:35:24;7.90;;;4.50;;
55756;SDS011;41676;44.610;44.078;2023-12-22T04:40:24;8.05;;;4.95;;
55756;SDS011;41676;44.610;44.078;2023-12-22T04:45:25;8.23;;;5.07;;
55756;SDS011;41676;44.610;44.078;2023-12-22T04:50:26;16.65;;;4.68;;
55756;SDS011;41676;44.610;44.078;2023-12-22T04:55:27;11.10;;;4.90;;
55756;SDS011;41676;44.610;44.078;2023-12-22T05:00:28;7.82;;;5.05;;
55756;SDS011;41676;44.610;44.078;2023-12-22T05:05:29;8.27;;;5.15;;
55756;SDS011;41676;44.610;44.078;2023-12-22T05:10:29;9.10;;;4.70;;
55756;SDS011;41676;44.610;44.078;2023-12-22T05:15:30;17.08;;;4.80;;
55756;SDS011;41676;44.610;44.078;2023-12-22T05:20:31;7.47;;;4.72;;
55756;SDS011;41676;44.610;44.078;2023-12-22T05:25:32;10.63;;;4.88;;
55756;SDS011;41676;44.610;44.078;2023-12-22T05:30:33;6.72;;;4.47;;
55756;SDS011;41676;44.610;44.078;2023-12-22T05:35:34;6.72;;;4.60;;
55756;SDS011;41676;44.610;44.078;2023-12-22T05:40:34;8.07;;;4.70;;
55756;SDS011;41676;44.610;44.078;2023-12-22T05:45:35;8.93;;;5.25;;
55756;SDS011;41676;44.610;44.078;2023-12-22T05:50:36;7.25;;;4.05;;
55756;SDS011;41676;44.610;44.078;2023-12-22T05:55:37;12.50;;;4.53;;
55756;SDS011;41676;44.610;44.078;2023-12-22T06:00:38;12.85;;;4.82;;
55756;SDS011;41676;44.610;44.078;2023-12-22T06:05:38;7.53;;;4.22;;
55756;SDS011;41676;44.610;44.078;2023-12-22T06:10:39;8.65;;;4.07;;
55756;SDS011;41676;44.610;44.078;2023-12-22T06:15:40;8.63;;;4.68;;
55756;SDS011;41676;44.610;44.078;2023-12-22T06:20:41;9.88;;;5.20;;
55756;SDS011;41676;44.610;44.078;2023-12-22T06:25:42;9.20;;;5.20;;
55756;SDS011;41676;44.610;44.078;2023-12-22T06:30:43;11.18;;;4.80;;
55756;SDS011;41676;44.610;44.078;2023-12-22T06:35:59;8.63;;;4.40;;
55756;SDS011;41676;44.610;44.078;2023-12-22T06:41:00;6.43;;;3.83;;
55756;SDS011;41676;44.610;44.078;2023-12-22T06:46:01;7.55;;;3.75;;
55756;SDS011;41676;44.610;44.078;2023-12-22T06:51:02;16.30;;;4.82;;
55756;SDS011;41676;44.610;44.078;2023-12-22T06:56:03;10.52;;;4.15;;
55756;SDS011;41676;44.610;44.078;2023-12-22T07:01:19;9.10;;;4.07;;
55756;SDS011;41676;44.610;44.078;2023-12-22T07:06:24;10.38;;;4.10;;
55756;SDS011;41676;44.610;44.078;2023-12-22T07:11:28;10.10;;;5.07;;
55756;SDS011;41676;44.610;44.078;2023-12-22T07:16:28;11.40;;;7.03;;
55756;SDS011;41676;44.610;44.078;2023-12-22T07:21:29;6.22;;;4.13;;
55756;SDS011;41676;44.610;44.078;2023-12-22T07:26:30;7.90;;;5.20;;
55756;SDS011;41676;44.610;44.078;2023-12-22T07:31:31;8.73;;;5.68;;
55756;SDS011;41676;44.610;44.078;2023-12-22T07:36:32;11.70;;;8.10;;
55756;SDS011;41676;44.610;44.078;2023-12-22T07:41:33;6.20;;;4.65;;
55756;SDS011;41676;44.610;44.078;2023-12-22T07:46:33;5.38;;;3.85;;
55756;SDS011;41676;44.610;44.078;2023-12-22T07:51:34;5.57;;;3.88;;
55756;SDS011;41676;44.610;44.078;2023-12-22T07:56:35;6.03;;;3.85;;
55756;SDS011;41676;44.610;44.078;2023-12-22T08:01:36;6.72;;;4.50;;
55756;SDS011;41676;44.610;44.078;2023-12-22T08:06:37;7.10;;;4.85;;
55756;SDS011;41676;44.610;44.078;2023-12-22T08:11:38;7.40;;;4.93;;
55756;SDS011;41676;44.610;44.078;2023-12-22T08:16:39;6.00;;;4.13;;
55756;SDS011;41676;44.610;44.078;2023-12-22T08:21:42;6.80;;;4.22;;
55756;SDS011;41676;44.610;44.078;2023-12-22T08:26:43;9.33;;;3.97;;
55756;SDS011;41676;44.610;44.078;2023-12-22T08:31:44;5.78;;;4.05;;
55756;SDS011;41676;44.610;44.078;2023-12-22T08:36:45;6.57;;;4.10;;
55756;SDS011;41676;44.610;44.078;2023-12-22T08:41:46;5.97;;;4.35;;
55756;SDS011;41676;44.610;44.078;2023-12-22T08:46:47;6.00;;;4.05;;
55756;SDS011;41676;44.610;44.078;2023-12-22T08:51:48;7.40;;;4.65;;
55756;SDS011;41676;44.610;44.078;2023-12-22T08:56:49;7.15;;;4.25;;
55756;SDS011;41676;44.610;44.078;2023-12-22T09:01:50;5.82;;;4.10;;
55756;SDS011;41676;44.610;44.078;2023-12-22T09:06:51;7.55;;;4.50;;
55756;SDS011;41676;44.610;44.078;2023-12-22T09:11:52;5.85;;;4.35;;
55756;SDS011;41676;44.610;44.078;2023-12-22T09:16:52;7.03;;;4.13;;
55756;SDS011;41676;44.610;44.078;2023-12-22T09:21:56;6.38;;;4.05;;
55756;SDS011;41676;44.610;44.078;2023-12-22T09:26:56;6.15;;;4.25;;
55756;SDS011;41676;44.610;44.078;2023-12-22T09:32:02;6.25;;;4.47;;
55756;SDS011;41676;44.610;44.078;2023-12-22T09:37:04;5.88;;;3.92;;
55756;SDS011;41676;44.610;44.078;2023-12-22T09:42:05;6.38;;;4.53;;
55756;SDS011;41676;44.610;44.078;2023-12-22T09:47:06;6.07;;;4.35;;
55756;SDS011;41676;44.610;44.078;2023-12-22T09:52:08;7.20;;;5.00;;
55756;SDS011;41676;44.610;44.078;2023-12-22T09:57:11;7.28;;;4.85;;
55756;SDS011;41676;44.610;44.078;2023-12-22T10:02:12;6.85;;;4.88;;
55756;SDS011;41676;44.610;44.078;2023-12-22T10:07:13;9.98;;;5.57;;
55756;SDS011;41676;44.610;44.078;2023-12-22T10:12:14;11.60;;;5.38;;
55756;SDS011;41676;44.610;44.078;2023-12-22T10:17:17;8.63;;;6.32;;
55756;SDS011;41676;44.610;44.078;2023-12-22T10:22:18;14.63;;;6.90;;
55756;SDS011;41676;44.610;44.078;2023-12-22T10:27:21;12.23;;;6.63;;
55756;SDS011;41676;44.610;44.078;2023-12-22T10:32:22;11.85;;;7.18;;
55756;SDS011;41676;44.610;44.078;2023-12-22T10:37:23;10.93;;;6.07;;
55756;SDS011;41676;44.610;44.078;2023-12-22T10:42:24;9.50;;;6.68;;
55756;SDS011;41676;44.610;44.078;2023-12-22T10:47:26;12.52;;;7.35;;
55756;SDS011;41676;44.610;44.078;2023-12-22T10:52:29;19.50;;;7.15;;
55756;SDS011;41676;44.610;44.078;2023-12-22T10:57:31;11.90;;;7.22;;
55756;SDS011;41676;44.610;44.078;2023-12-22T11:02:42;15.85;;;5.90;;
55756;SDS011;41676;44.610;44.078;2023-12-22T11:07:46;12.25;;;7.20;;
55756;SDS011;41676;44.610;44.078;2023-12-22T11:12:49;18.23;;;10.20;;
55756;SDS011;41676;44.610;44.078;2023-12-22T11:17:51;26.52;;;11.95;;
55756;SDS011;41676;44.610;44.078;2023-12-22T11:22:55;20.67;;;10.00;;
55756;SDS011;41676;44.610;44.078;2023-12-22T11:27:58;13.15;;;6.90;;
55756;SDS011;41676;44.610;44.078;2023-12-22T11:33:01;9.65;;;6.38;;
55756;SDS011;41676;44.610;44.078;2023-12-22T11:38:02;11.60;;;6.40;;
55756;SDS011;41676;44.610;44.078;2023-12-22T11:43:05;11.27;;;5.70;;
55756;SDS011;41676;44.610;44.078;2023-12-22T11:48:08;10.55;;;5.47;;
55756;SDS011;41676;44.610;44.078;2023-12-22T11:53:22;8.63;;;5.65;;
55756;SDS011;41676;44.610;44.078;2023-12-22T11:58:34;10.25;;;5.93;;
55756;SDS011;41676;44.610;44.078;2023-12-22T12:03:37;7.22;;;5.40;;
55756;SDS011;41676;44.610;44.078;2023-12-22T12:08:43;7.75;;;5.40;;
55756;SDS011;41676;44.610;44.078;2023-12-22T12:13:45;9.52;;;5.47;;
55756;SDS011;41676;44.610;44.078;2023-12-22T12:18:46;9.57;;;5.60;;
55756;SDS011;41676;44.610;44.078;2023-12-22T12:23:47;8.90;;;5.50;;
55756;SDS011;41676;44.610;44.078;2023-12-22T12:28:48;7.65;;;5.18;;
55756;SDS011;41676;44.610;44.078;2023-12-22T12:33:50;7.97;;;4.82;;
55756;SDS011;41676;44.610;44.078;2023-12-22T12:44:14;12.97;;;5.37;;
55756;SDS011;41676;44.610;44.078;2023-12-22T12:49:17;9.30;;;5.13;;
55756;SDS011;41676;44.610;44.078;2023-12-22T12:54:19;9.85;;;5.00;;
55756;SDS011;41676;44.610;44.078;2023-12-22T12:59:20;6.25;;;4.75;;
55756;SDS011;41676;44.610;44.078;2023-12-22T13:04:20;7.93;;;5.03;;
55756;SDS011;41676;44.610;44.078;2023-12-22T13:09:21;21.27;;;5.47;;
55756;SDS011;41676;44.610;44.078;2023-12-22T13:14:33;9.93;;;5.45;;
55756;SDS011;41676;44.610;44.078;2023-12-22T13:19:33;8.07;;;6.00;;
55756;SDS011;41676;44.610;44.078;2023-12-22T13:24:34;8.23;;;5.60;;
55756;SDS011;41676;44.610;44.078;2023-12-22T13:29:45;14.90;;;6.18;;
55756;SDS011;41676;44.610;44.078;2023-12-22T13:34:49;11.00;;;7.60;;
55756;SDS011;41676;44.610;44.078;2023-12-22T13:39:51;25.83;;;13.30;;
55756;SDS011;41676;44.610;44.078;2023-12-22T13:44:52;23.33;;;12.20;;
55756;SDS011;41676;44.610;44.078;2023-12-22T13:49:54;22.40;;;11.75;;
55756;SDS011;41676;44.610;44.078;2023-12-22T13:54:55;25.25;;;10.27;;
55756;SDS011;41676;44.610;44.078;2023-12-22T13:59:57;19.23;;;7.35;;
55756;SDS011;41676;44.610;44.078;2023-12-22T14:04:58;12.50;;;7.38;;
55756;SDS011;41676;44.610;44.078;2023-12-22T14:10:04;10.60;;;6.93;;
55756;SDS011;41676;44.610;44.078;2023-12-22T14:15:08;13.20;;;7.70;;
55756;SDS011;41676;44.610;44.078;2023-12-22T14:20:10;16.25;;;10.10;;
55756;SDS011;41676;44.610;44.078;2023-12-22T14:25:11;18.27;;;9.20;;
55756;SDS011;41676;44.610;44.078;2023-12-22T14:30:12;16.67;;;8.60;;
55756;SDS011;41676;44.610;44.078;2023-12-22T14:35:14;15.95;;;8.05;;
55756;SDS011;41676;44.610;44.078;2023-12-22T14:40:15;22.58;;;12.85;;
55756;SDS011;41676;44.610;44.078;2023-12-22T14:45:16;28.15;;;17.80;;
55756;SDS011;41676;44.610;44.078;2023-12-22T14:50:17;20.15;;;14.57;;
55756;SDS011;41676;44.610;44.078;2023-12-22T14:55:18;14.15;;;9.48;;
55756;SDS011;41676;44.610;44.078;2023-12-22T15:00:20;14.25;;;9.45;;
55756;SDS011;41676;44.610;44.078;2023-12-22T15:05:20;12.57;;;8.77;;
55756;SDS011;41676;44.610;44.078;2023-12-22T15:10:22;17.38;;;11.40;;
55756;SDS011;41676;44.610;44.078;2023-12-22T15:15:23;18.08;;;11.60;;
55756;SDS011;41676;44.610;44.078;2023-12-22T15:20:24;17.90;;;10.98;;
55756;SDS011;41676;44.610;44.078;2023-12-22T15:25:24;12.57;;;9.80;;
55756;SDS011;41676;44.610;44.078;2023-12-22T15:30:26;22.05;;;15.05;;
55756;SDS011;41676;44.610;44.078;2023-12-22T15:35:28;30.45;;;18.27;;
55756;SDS011;41676;44.610;44.078;2023-12-22T15:40:29;24.25;;;15.07;;
55756;SDS011;41676;44.610;44.078;2023-12-22T15:45:29;22.00;;;10.25;;
55756;SDS011;41676;44.610;44.078;2023-12-22T15:50:31;19.58;;;7.13;;
55756;SDS011;41676;44.610;44.078;2023-12-22T15:55:32;35.35;;;6.55;;
55756;SDS011;41676;44.610;44.078;2023-12-22T16:00:33;32.53;;;12.57;;
55756;SDS011;41676;44.610;44.078;2023-12-22T16:05:34;35.00;;;10.68;;
55756;SDS011;41676;44.610;44.078;2023-12-22T16:10:34;43.20;;;8.27;;
55756;SDS011;41676;44.610;44.078;2023-12-22T16:15:35;40.17;;;5.15;;
55756;SDS011;41676;44.610;44.078;2023-12-22T16:20:36;29.55;;;6.05;;
55756;SDS011;41676;44.610;44.078;2023-12-22T16:25:38;92.90;;;8.65;;
55756;SDS011;41676;44.610;44.078;2023-12-22T16:30:39;67.35;;;7.63;;
55756;SDS011;41676;44.610;44.078;2023-12-22T16:35:40;119.20;;;8.88;;
55756;SDS011;41676;44.610;44.078;2023-12-22T16:40:41;113.43;;;9.43;;
55756;SDS011;41676;44.610;44.078;2023-12-22T16:45:44;65.55;;;6.82;;
55756;SDS011;41676;44.610;44.078;2023-12-22T16:50:45;119.80;;;10.15;;
55756;SDS011;41676;44.610;44.078;2023-12-22T16:55:46;104.45;;;12.32;;
55756;SDS011;41676;44.610;44.078;2023-12-22T17:00:47;88.63;;;10.18;;
55756;SDS011;41676;44.610;44.078;2023-12-22T17:05:47;94.65;;;7.93;;
55756;SDS011;41676;44.610;44.078;2023-12-22T17:10:48;121.93;;;8.40;;
55756;SDS011;41676;44.610;44.078;2023-12-22T17:15:49;135.38;;;8.43;;
55756;SDS011;41676;44.610;44.078;2023-12-22T17:20:50;84.95;;;9.80;;
55756;SDS011;41676;44.610;44.078;2023-12-22T17:25:51;118.32;;;10.75;;
55756;SDS011;41676;44.610;44.078;2023-12-22T17:30:52;94.15;;;8.27;;
55756;SDS011;41676;44.610;44.078;2023-12-22T17:35:53;87.93;;;10.15;;
55756;SDS011;41676;44.610;44.078;2023-12-22T17:40:54;100.15;;;7.13;;
55756;SDS011;41676;44.610;44.078;2023-12-22T17:45:55;61.70;;;8.40;;
55756;SDS011;41676;44.610;44.078;2023-12-22T17:50:56;92.68;;;8.07;;
55756;SDS011;41676;44.610;44.078;2023-12-22T17:55:57;43.65;;;9.63;;
55756;SDS011;41676;44.610;44.078;2023-12-22T18:00:59;21.92;;;8.43;;
55756;SDS011;41676;44.610;44.078;2023-12-22T18:06:00;13.13;;;6.75;;
55756;SDS011;41676;44.610;44.078;2023-12-22T18:11:01;10.85;;;6.50;;
55756;SDS011;41676;44.610;44.078;2023-12-22T18:16:05;10.82;;;6.80;;
55756;SDS011;41676;44.610;44.078;2023-12-22T18:21:06;28.88;;;8.85;;
55756;SDS011;41676;44.610;44.078;2023-12-22T18:26:08;22.25;;;8.85;;
55756;SDS011;41676;44.610;44.078;2023-12-22T18:31:09;24.13;;;10.32;;
55756;SDS011;41676;44.610;44.078;2023-12-22T18:36:12;21.67;;;9.93;;
55756;SDS011;41676;44.610;44.078;2023-12-22T18:41:13;14.00;;;8.43;;
55756;SDS011;41676;44.610;44.078;2023-12-22T18:46:14;12.60;;;8.25;;
55756;SDS011;41676;44.610;44.078;2023-12-22T18:51:14;8.48;;;6.25;;
55756;SDS011;41676;44.610;44.078;2023-12-22T18:56:21;6.80;;;5.25;;
55756;SDS011;41676;44.610;44.078;2023-12-22T19:01:22;8.98;;;5.53;;
55756;SDS011;41676;44.610;44.078;2023-12-22T19:06:24;8.43;;;5.80;;
55756;SDS011;41676;44.610;44.078;2023-12-22T19:11:25;8.60;;;5.95;;
55756;SDS011;41676;44.610;44.078;2023-12-22T19:16:25;9.43;;;7.00;;
55756;SDS011;41676;44.610;44.078;2023-12-22T19:21:26;12.45;;;6.40;;
55756;SDS011;41676;44.610;44.078;2023-12-22T19:26:27;10.35;;;6.70;;
55756;SDS011;41676;44.610;44.078;2023-12-22T19:31:28;8.65;;;5.90;;
55756;SDS011;41676;44.610;44.078;2023-12-22T19:36:29;17.52;;;9.20;;
55756;SDS011;41676;44.610;44.078;2023-12-22T19:41:31;9.85;;;5.43;;
55756;SDS011;41676;44.610;44.078;2023-12-22T19:46:34;7.60;;;5.13;;
55756;SDS011;41676;44.610;44.078;2023-12-22T19:51:35;8.23;;;5.10;;
55756;SDS011;41676;44.610;44.078;2023-12-22T19:56:35;7.93;;;5.18;;
55756;SDS011;41676;44.610;44.078;2023-12-22T20:01:36;8.55;;;4.97;;
55756;SDS011;41676;44.610;44.078;2023-12-22T20:06:37;7.15;;;4.97;;
55756;SDS011;41676;44.610;44.078;2023-12-22T20:11:38;7.35;;;5.00;;
55756;SDS011;41676;44.610;44.078;2023-12-22T20:16:39;11.05;;;5.28;;
55756;SDS011;41676;44.610;44.078;2023-12-22T20:21:39;10.15;;;5.07;;
55756;SDS011;41676;44.610;44.078;2023-12-22T20:26:42;7.75;;;5.32;;
55756;SDS011;41676;44.610;44.078;2023-12-22T20:31:43;7.78;;;5.05;;
55756;SDS011;41676;44.610;44.078;2023-12-22T20:36:44;12.98;;;4.72;;
55756;SDS011;41676;44.610;44.078;2023-12-22T20:41:45;8.38;;;4.82;;
55756;SDS011;41676;44.610;44.078;2023-12-22T20:46:46;8.85;;;5.05;;
55756;SDS011;41676;44.610;44.078;2023-12-22T20:51:48;6.63;;;4.60;;
55756;SDS011;41676;44.610;44.078;2023-12-22T20:56:52;6.22;;;4.25;;
55756;SDS011;41676;44.610;44.078;2023-12-22T21:01:53;7.65;;;4.03;;
55756;SDS011;41676;44.610;44.078;2023-12-22T21:06:54;4.20;;;2.40;;
55756;SDS011;41676;44.610;44.078;2023-12-22T21:11:55;3.05;;;2.17;;
55756;SDS011;41676;44.610;44.078;2023-12-22T21:16:56;3.00;;;1.80;;
55756;SDS011;41676;44.610;44.078;2023-12-22T21:21:56;3.20;;;2.00;;
55756;SDS011;41676;44.610;44.078;2023-12-22T21:26:57;4.57;;;2.20;;
55756;SDS011;41676;44.610;44.078;2023-12-22T21:31:58;4.55;;;1.92;;
55756;SDS011;41676;44.610;44.078;2023-12-22T21:36:59;3.47;;;1.75;;
55756;SDS011;41676;44.610;44.078;2023-12-22T21:41:59;4.45;;;2.75;;
55756;SDS011;41676;44.610;44.078;2023-12-22T21:47:03;5.95;;;2.83;;
55756;SDS011;41676;44.610;44.078;2023-12-22T21:52:04;3.70;;;2.58;;
55756;SDS011;41676;44.610;44.078;2023-12-22T21:57:05;4.93;;;2.92;;
55756;SDS011;41676;44.610;44.078;2023-12-22T22:02:06;3.90;;;2.50;;
55756;SDS011;41676;44.610;44.078;2023-12-22T22:07:08;4.20;;;2.20;;
55756;SDS011;41676;44.610;44.078;2023-12-22T22:12:09;6.15;;;2.35;;
55756;SDS011;41676;44.610;44.078;2023-12-22T22:17:11;3.75;;;2.25;;
55756;SDS011;41676;44.610;44.078;2023-12-22T22:22:12;3.35;;;1.90;;
55756;SDS011;41676;44.610;44.078;2023-12-22T22:27:13;3.10;;;2.08;;
55756;SDS011;41676;44.610;44.078;2023-12-22T22:32:14;6.75;;;2.17;;
55756;SDS011;41676;44.610;44.078;2023-12-22T22:37:15;4.25;;;2.25;;
55756;SDS011;41676;44.610;44.078;2023-12-22T22:42:16;3.22;;;2.20;;
55756;SDS011;41676;44.610;44.078;2023-12-22T22:47:17;3.22;;;2.17;;
55756;SDS011;41676;44.610;44.078;2023-12-22T22:52:17;3.78;;;2.17;;
55756;SDS011;41676;44.610;44.078;2023-12-22T22:57:18;3.10;;;2.22;;
55756;SDS011;41676;44.610;44.078;2023-12-22T23:02:19;3.00;;;2.10;;
55756;SDS011;41676;44.610;44.078;2023-12-22T23:07:21;2.72;;;1.90;;
55756;SDS011;41676;44.610;44.078;2023-12-22T23:12:22;3.00;;;2.10;;
55756;SDS011;41676;44.610;44.078;2023-12-22T23:17:23;3.28;;;2.13;;
55756;SDS011;41676;44.610;44.078;2023-12-22T23:22:24;3.97;;;2.08;;
55756;SDS011;41676;44.610;44.078;2023-12-22T23:27:25;3.60;;;2.53;;
55756;SDS011;41676;44.610;44.078;2023-12-22T23:32:25;12.68;;;2.70;;
55756;SDS011;41676;44.610;44.078;2023-12-22T23:37:27;12.98;;;2.53;;
55756;SDS011;41676;44.610;44.078;2023-12-22T23:42:27;21.83;;;2.58;;
55756;SDS011;41676;44.610;44.078;2023-12-22T23:47:28;20.45;;;2.28;;
55756;SDS011;41676;44.610;44.078;2023-12-22T23:52:29;40.53;;;3.20;;
55756;SDS011;41676;44.610;44.078;2023-12-22T23:57:30;47.03;;;2.92;;
